Time;durP1;ratioP1;P1;durP2;ratioP2;P2;SDS_P1;SDS_P2;PMS_P1;PMS_P2;Temp;Humidity;BMP_temperature;BMP_pressure;BME280_temperature;BME280_humidity;BME280_pressure;Samples;Min_cycle;Max_cycle;Signal;HPM_P1;HPM_P2
2022/07/19 00:00:27;;;;;;;0.20;0.20;;;;;;;16.34;82.07;100703.56;5043573;28;20021;-69
2022/07/19 00:02:52;;;;;;;0.30;0.30;;;;;;;16.27;82.16;100698.53;5043708;28;20025;-68
2022/07/19 00:05:19;;;;;;;0.20;0.20;;;;;;;16.29;82.23;100702.88;5043512;28;20025;-68
2022/07/19 00:07:45;;;;;;;0.40;0.38;;;;;;;16.27;82.38;100707.28;5043435;28;20025;-69
2022/07/19 00:10:12;;;;;;;0.22;0.22;;;;;;;16.24;82.81;100704.75;5043606;28;20025;-68
2022/07/19 00:12:38;;;;;;;0.80;0.80;;;;;;;16.26;82.61;100705.56;5043346;28;20056;-68
2022/07/19 00:15:06;;;;;;;0.20;0.20;;;;;;;16.23;82.69;100706.50;5043189;28;20033;-68
2022/07/19 00:17:31;;;;;;;0.20;0.20;;;;;;;16.20;83.09;100701.34;5043444;28;20021;-68
2022/07/19 00:19:57;;;;;;;1.50;1.33;;;;;;;16.25;83.06;100700.34;5043541;28;20417;-68
2022/07/19 00:22:22;;;;;;;0.20;0.20;;;;;;;16.22;82.75;100701.28;5043494;28;20013;-64
2022/07/19 00:24:47;;;;;;;0.20;0.20;;;;;;;16.19;83.14;100712.72;5043266;28;20425;-64
2022/07/19 00:27:13;;;;;;;0.20;0.20;;;;;;;16.20;83.22;100705.72;5043137;28;20033;-64
2022/07/19 00:29:38;;;;;;;1.73;1.63;;;;;;;16.21;82.97;100696.97;5043269;28;20017;-64
2022/07/19 00:32:04;;;;;;;0.20;0.20;;;;;;;16.19;82.64;100681.28;5043091;28;20029;-68
2022/07/19 00:34:29;;;;;;;0.45;0.45;;;;;;;16.18;82.84;100684.78;5043142;28;20026;-68
2022/07/19 00:36:55;;;;;;;0.70;0.70;;;;;;;16.15;83.46;100694.53;5043129;28;20048;-68
2022/07/19 00:39:20;;;;;;;0.40;0.40;;;;;;;16.11;84.01;100698.97;5043147;28;20103;-68
2022/07/19 00:41:46;;;;;;;1.55;0.75;;;;;;;16.11;83.79;100704.22;5024962;28;20049;-67
2022/07/19 00:44:11;;;;;;;0.20;0.20;;;;;;;16.11;83.84;100704.22;5044461;28;20044;-67
2022/07/19 00:46:37;;;;;;;0.40;0.40;;;;;;;16.12;83.62;100703.31;5047057;28;20026;-68
2022/07/19 00:49:04;;;;;;;0.20;0.20;;;;;;;16.14;83.61;100718.97;5046965;28;20021;-68
2022/07/19 00:51:33;;;;;;;0.30;0.30;;;;;;;16.11;84.24;100714.69;5047318;28;20025;-67
2022/07/19 00:54:01;;;;;;;0.57;0.57;;;;;;;16.12;83.88;100715.56;5047102;28;20473;-67
2022/07/19 00:56:27;;;;;;;0.20;0.20;;;;;;;16.12;84.37;100713.78;5047044;28;20028;-67
2022/07/19 00:58:54;;;;;;;1.35;1.10;;;;;;;16.12;84.14;100710.31;5046793;28;20028;-67
2022/07/19 01:01:19;;;;;;;0.20;0.20;;;;;;;16.11;84.00;100709.44;5046999;28;20029;-67
2022/07/19 01:03:45;;;;;;;0.20;0.20;;;;;;;16.13;84.03;100710.28;5047048;28;20052;-68
2022/07/19 01:06:11;;;;;;;0.35;0.35;;;;;;;16.09;84.16;100708.63;5046823;28;20029;-68
2022/07/19 01:08:37;;;;;;;0.28;0.28;;;;;;;16.09;83.68;100709.50;5046722;28;20021;-68
2022/07/19 01:11:04;;;;;;;0.68;0.68;;;;;;;16.04;84.05;100708.75;5046698;28;20108;-67
2022/07/19 01:13:30;;;;;;;0.40;0.40;;;;;;;15.98;83.99;100720.25;5028641;28;20097;-67
2022/07/19 01:15:56;;;;;;;0.30;0.30;;;;;;;15.97;84.31;100721.13;5046552;28;20029;-68
2022/07/19 01:18:21;;;;;;;0.30;0.30;;;;;;;15.96;84.09;100715.91;5046503;28;20029;-67
2022/07/19 01:20:46;;;;;;;0.73;0.73;;;;;;;15.96;84.31;100721.13;5046536;28;20021;-67
2022/07/19 01:23:12;;;;;;;0.95;0.93;;;;;;;15.96;84.13;100715.91;5046393;28;20056;-68
2022/07/19 01:25:38;;;;;;;0.20;0.20;;;;;;;15.96;84.67;100718.53;5046652;28;20026;-67
2022/07/19 01:28:05;;;;;;;1.00;1.00;;;;;;;15.92;85.09;100717.75;5046351;28;20018;-67
2022/07/19 01:30:31;;;;;;;0.20;0.20;;;;;;;15.96;84.75;100721.13;5046559;28;20018;-67
2022/07/19 01:32:57;;;;;;;1.50;1.40;;;;;;;15.97;84.50;100720.25;5046183;28;20211;-67
2022/07/19 01:35:22;;;;;;;0.30;0.30;;;;;;;15.94;84.45;100722.97;5046507;28;20037;-67
2022/07/19 01:37:49;;;;;;;0.30;0.30;;;;;;;15.95;84.66;100714.19;5046307;28;20026;-67
2022/07/19 01:40:16;;;;;;;0.30;0.30;;;;;;;15.93;84.16;100716.84;5046388;28;20373;-67
2022/07/19 01:42:43;;;;;;;0.73;0.73;;;;;;;15.91;84.47;100718.66;5045784;28;20077;-67
2022/07/19 01:45:09;;;;;;;1.15;1.05;;;;;;;15.87;84.69;100717.00;5046025;28;20034;-67
2022/07/19 01:47:36;;;;;;;2.25;2.15;;;;;;;15.86;84.61;100717.94;5046147;28;20081;-67
2022/07/19 01:50:03;;;;;;;0.50;0.50;;;;;;;15.82;85.17;100719.75;5046119;28;20030;-68
2022/07/19 01:52:28;;;;;;;4.03;3.28;;;;;;;15.78;85.49;100720.75;5045985;28;20029;-67
2022/07/19 01:54:53;;;;;;;9.50;2.65;;;;;;;15.74;85.91;100709.47;5045129;28;20026;-67
2022/07/19 01:57:19;;;;;;;1.15;1.05;;;;;;;15.74;85.93;100712.09;5045217;28;20033;-67
2022/07/19 01:59:44;;;;;;;0.30;0.30;;;;;;;15.78;86.63;100722.50;5028074;28;20026;-67
2022/07/19 02:02:10;;;;;;;0.30;0.30;;;;;;;15.78;86.93;100723.38;5045668;28;20014;-69
2022/07/19 02:04:35;;;;;;;2.40;0.77;;;;;;;15.80;86.89;100724.16;5045636;28;20021;-68
2022/07/19 02:07:01;;;;;;;0.50;0.50;;;;;;;15.82;86.91;100716.25;5045819;28;20437;-68
2022/07/19 02:09:26;;;;;;;0.20;0.20;;;;;;;15.81;86.49;100722.41;5027618;28;20028;-67
2022/07/19 02:11:51;;;;;;;0.20;0.20;;;;;;;15.77;86.65;100713.78;5045402;28;20068;-68
2022/07/19 02:14:17;;;;;;;0.25;0.25;;;;;;;15.78;86.89;100728.59;5045399;28;20082;-67
2022/07/19 02:16:43;;;;;;;0.30;0.30;;;;;;;15.76;87.35;100719.91;5045473;28;20026;-67
2022/07/19 02:19:10;;;;;;;0.30;0.30;;;;;;;15.74;87.36;100719.09;5045192;28;20112;-67
2022/07/19 02:21:36;;;;;;;0.40;0.40;;;;;;;15.75;87.76;100715.56;5045296;28;20036;-68
2022/07/19 02:24:02;;;;;;;0.30;0.30;;;;;;;15.76;87.81;100713.81;5045378;28;20045;-68
2022/07/19 02:26:28;;;;;;;0.68;0.68;;;;;;;15.76;87.81;100713.81;5045426;28;20313;-67
2022/07/19 02:28:53;;;;;;;0.47;0.47;;;;;;;15.79;87.78;100722.44;5045166;28;20258;-67
2022/07/19 02:31:19;;;;;;;0.20;0.20;;;;;;;15.82;87.35;100714.53;5045221;28;20029;-68
2022/07/19 02:33:44;;;;;;;2.47;2.17;;;;;;;15.82;88.00;100713.66;5044856;28;20041;-68
2022/07/19 02:36:10;;;;;;;0.20;0.20;;;;;;;15.81;88.10;100715.44;5045016;28;20060;-67
2022/07/19 02:38:36;;;;;;;3.20;2.15;;;;;;;15.81;88.30;100712.81;5044968;28;20025;-67
2022/07/19 02:41:01;;;;;;;0.40;0.40;;;;;;;15.83;88.62;100716.22;5044724;28;20032;-67
2022/07/19 02:43:26;;;;;;;0.63;0.63;;;;;;;15.84;88.40;100717.09;5044917;28;20054;-67
2022/07/19 02:45:52;;;;;;;0.25;0.25;;;;;;;15.85;88.59;100724.03;5045126;28;20061;-67
2022/07/19 02:48:17;;;;;;;0.40;0.40;;;;;;;15.84;88.75;100717.97;5044925;28;20473;-68
2022/07/19 02:50:43;;;;;;;1.75;0.77;;;;;;;15.86;89.21;100720.53;5044783;28;20080;-68
2022/07/19 02:53:08;;;;;;;0.85;0.85;;;;;;;15.86;89.48;100725.78;5044629;28;20048;-67
2022/07/19 02:55:34;;;;;;;0.25;0.25;;;;;;;15.89;89.37;100730.94;5044812;28;20040;-68
2022/07/19 02:57:59;;;;;;;0.52;0.52;;;;;;;15.91;89.69;100726.50;5044869;28;20288;-67
2022/07/19 03:00:25;;;;;;;0.63;0.63;;;;;;;15.91;89.55;100728.28;5026662;28;20084;-68
2022/07/19 03:02:50;;;;;;;1.10;1.10;;;;;;;15.94;89.33;100739.50;5044422;28;20022;-69
2022/07/19 03:05:16;;;;;;;1.23;1.08;;;;;;;15.96;89.76;100744.72;5044635;28;20032;-69
2022/07/19 03:07:41;;;;;;;0.40;0.40;;;;;;;15.96;89.92;100748.19;5043986;28;20017;-68
2022/07/19 03:10:07;;;;;;;0.30;0.30;;;;;;;16.00;89.79;100756.88;5044592;28;20025;-69
2022/07/19 03:12:32;;;;;;;0.20;0.20;;;;;;;16.02;89.97;100755.09;5044402;28;20032;-68
2022/07/19 03:14:58;;;;;;;4.05;1.85;;;;;;;16.09;90.07;100755.75;5044270;28;20045;-68
2022/07/19 03:17:23;;;;;;;0.20;0.20;;;;;;;16.17;90.07;100751.19;5044350;28;20527;-68
2022/07/19 03:19:49;;;;;;;0.85;0.65;;;;;;;16.31;90.36;100757.84;5044099;28;20033;-68
2022/07/19 03:22:14;;;;;;;0.20;0.20;;;;;;;16.53;91.09;100760.72;5044057;28;20025;-67
2022/07/19 03:24:40;;;;;;;0.28;0.28;;;;;;;16.82;91.34;100748.53;5044192;28;20026;-68
2022/07/19 03:27:05;;;;;;;0.77;0.77;;;;;;;17.03;90.65;100751.41;5044068;28;20172;-67
2022/07/19 03:29:30;;;;;;;0.30;0.30;;;;;;;17.15;89.31;100757.25;5044065;28;20026;-68
2022/07/19 03:31:57;;;;;;;0.88;0.63;;;;;;;17.39;89.29;100750.38;5043941;28;20017;-68
2022/07/19 03:34:22;;;;;;;0.50;0.50;;;;;;;17.72;90.40;100754.56;5044082;28;20029;-68
2022/07/19 03:36:48;;;;;;;0.40;0.40;;;;;;;18.04;90.58;100757.03;5044190;28;20026;-68
2022/07/19 03:39:13;;;;;;;0.20;0.20;;;;;;;18.29;90.57;100761.47;5044013;28;20477;-69
2022/07/19 03:41:38;;;;;;;0.30;0.30;;;;;;;18.74;90.71;100766.91;5043645;28;20049;-70
2022/07/19 03:44:04;;;;;;;0.28;0.28;;;;;;;19.17;91.82;100762.66;5043702;28;20453;-68
2022/07/19 03:46:29;;;;;;;0.20;0.20;;;;;;;19.53;91.18;100763.91;5043910;28;20085;-68
2022/07/19 03:48:56;;;;;;;0.20;0.20;;;;;;;19.90;88.46;100756.25;5043768;28;20026;-69
2022/07/19 03:51:23;;;;;;;0.30;0.30;;;;;;;20.13;86.01;100758.84;5043958;28;20041;-68
2022/07/19 03:53:48;;;;;;;0.30;0.30;;;;;;;20.42;85.01;100749.66;5043722;28;20017;-69
2022/07/19 03:56:14;;;;;;;2.13;1.27;;;;;;;20.69;85.00;100764.31;5043571;28;20091;-68
2022/07/19 03:58:40;;;;;;;0.20;0.20;;;;;;;20.87;81.67;100759.13;5043287;28;20029;-68
2022/07/19 04:01:06;;;;;;;0.65;0.65;;;;;;;21.18;78.88;100755.09;5043456;28;20029;-66
2022/07/19 04:03:36;;;;;;;1.10;1.10;;;;;;;21.36;76.22;100755.97;5043294;28;20028;-67
2022/07/19 04:06:02;;;;;;;1.17;1.17;;;;;;;21.67;75.58;100750.97;5043240;28;20116;-65
2022/07/19 04:08:27;;;;;;;1.50;1.40;;;;;;;22.03;75.35;100757.13;5043312;28;20023;-66
2022/07/19 04:10:52;;;;;;;0.40;0.40;;;;;;;22.31;71.69;100754.84;5043174;28;20032;-66
2022/07/19 04:13:18;;;;;;;0.20;0.20;;;;;;;22.47;69.51;100760.19;5043202;28;20094;-66
2022/07/19 04:15:43;;;;;;;1.33;1.33;;;;;;;22.56;68.74;100758.84;5043109;28;20025;-66
2022/07/19 04:18:08;;;;;;;0.85;0.85;;;;;;;22.65;67.14;100756.56;5042843;28;20021;-68
2022/07/19 04:20:34;;;;;;;0.28;0.28;;;;;;;22.92;66.68;100760.44;5043054;28;20392;-67
2022/07/19 04:22:59;;;;;;;1.35;1.25;;;;;;;23.19;64.97;100765.16;5043275;28;20029;-66
2022/07/19 04:25:25;;;;;;;0.20;0.20;;;;;;;23.49;64.53;100759.06;5043105;28;20025;-66
2022/07/19 04:27:50;;;;;;;0.17;0.17;;;;;;;23.82;63.43;100759.81;5043045;28;20109;-66
2022/07/19 04:30:15;;;;;;;0.20;0.20;;;;;;;24.22;61.20;100766.38;5025234;28;20021;-66
2022/07/19 04:32:41;;;;;;;0.35;0.35;;;;;;;24.57;61.28;100767.81;5042978;28;20104;-67
2022/07/19 04:35:07;;;;;;;0.20;0.20;;;;;;;24.98;61.44;100774.16;5042878;28;20018;-67
2022/07/19 04:37:33;;;;;;;0.20;0.20;;;;;;;25.40;60.15;100776.75;5043195;28;20040;-66
2022/07/19 04:39:59;;;;;;;0.10;0.10;;;;;;;25.61;58.90;100773.63;5042755;28;20045;-67
2022/07/19 04:42:24;;;;;;;0.20;0.20;;;;;;;25.85;57.29;100772.97;5043006;28;20061;-67
2022/07/19 04:44:49;;;;;;;3.00;1.27;;;;;;;26.17;56.80;100774.38;5042993;28;20032;-66
2022/07/19 04:47:15;;;;;;;0.20;0.20;;;;;;;26.62;57.17;100781.97;5042936;28;20021;-67
2022/07/19 04:49:40;;;;;;;0.10;0.10;;;;;;;27.21;57.14;100799.09;5043242;28;20026;-68
2022/07/19 04:52:05;;;;;;;1.55;0.73;;;;;;;27.75;57.92;100788.09;5042925;28;20040;-67
2022/07/19 04:54:31;;;;;;;0.10;0.10;;;;;;;28.27;57.93;100784.19;5042983;28;20017;-67
2022/07/19 04:56:56;;;;;;;0.10;0.10;;;;;;;28.78;57.87;100776.69;5042973;28;20021;-66
2022/07/19 04:59:22;;;;;;;0.40;0.40;;;;;;;29.06;57.66;100777.16;5042968;28;20064;-66
2022/07/19 05:01:47;;;;;;;0.10;0.10;;;;;;;29.43;58.08;100786.63;5043147;28;20018;-67
2022/07/19 05:04:12;;;;;;;0.10;0.10;;;;;;;29.80;57.92;100782.72;5042883;28;20138;-66
2022/07/19 05:06:38;;;;;;;0.30;0.30;;;;;;;30.09;56.75;100775.84;5042826;28;20026;-67
2022/07/19 05:09:03;;;;;;;0.10;0.10;;;;;;;30.25;56.68;100775.41;5042987;28;20033;-67
2022/07/19 05:11:29;;;;;;;0.10;0.10;;;;;;;30.80;56.51;100787.63;5042803;28;20048;-67
2022/07/19 05:13:54;;;;;;;0.10;0.10;;;;;;;31.03;55.23;100788.25;5042532;28;20056;-67
2022/07/19 05:16:20;;;;;;;0.30;0.30;;;;;;;31.32;54.44;100778.53;5042814;28;20105;-66
2022/07/19 05:18:45;;;;;;;0.10;0.10;;;;;;;30.90;50.95;100775.09;5042733;28;20025;-67
2022/07/19 05:21:10;;;;;;;0.17;0.17;;;;;;;30.71;51.74;100777.69;5024971;28;20029;-66
2022/07/19 05:23:36;;;;;;;0.20;0.20;;;;;;;31.06;52.71;100772.88;5042684;28;20017;-67
2022/07/19 05:26:01;;;;;;;0.80;0.75;;;;;;;31.31;53.14;100786.72;5042542;28;20036;-67
2022/07/19 05:28:26;;;;;;;0.10;0.10;;;;;;;31.24;50.60;100781.06;5042723;28;20032;-66
2022/07/19 05:30:52;;;;;;;0.30;0.30;;;;;;;31.82;51.66;100774.03;5027091;28;20025;-67
2022/07/19 05:33:17;;;;;;;0.10;0.10;;;;;;;31.85;48.97;100775.56;5046063;28;20044;-67
2022/07/19 05:35:42;;;;;;;0.10;0.10;;;;;;;31.95;47.97;100772.88;5046278;28;20179;-66
2022/07/19 05:38:08;;;;;;;0.13;0.13;;;;;;;32.30;48.05;100766.00;5046139;28;20029;-66
2022/07/19 05:40:33;;;;;;;0.20;0.20;;;;;;;32.49;47.66;100769.59;5046211;28;20033;-66
2022/07/19 05:43:00;;;;;;;0.10;0.10;;;;;;;32.77;47.22;100767.75;5045920;28;20041;-66
2022/07/19 05:45:25;;;;;;;0.10;0.10;;;;;;;33.01;47.67;100771.72;5046002;28;20021;-66
2022/07/19 05:47:51;;;;;;;0.30;0.30;;;;;;;32.95;47.07;100775.00;5046032;28;20033;-67
2022/07/19 05:50:16;;;;;;;0.10;0.10;;;;;;;32.81;45.79;100779.06;5046052;28;20013;-66
2022/07/19 05:52:42;;;;;;;0.55;0.55;;;;;;;33.13;46.11;100777.72;5045711;28;20021;-66
2022/07/19 05:55:07;;;;;;;0.10;0.10;;;;;;;33.25;45.01;100785.56;5045797;28;20059;-66
2022/07/19 05:57:33;;;;;;;0.20;0.20;;;;;;;33.21;44.53;100794.97;5045971;28;20051;-67
2022/07/19 05:59:58;;;;;;;0.32;0.32;;;;;;;33.37;44.68;100799.66;5045717;28;20470;-66
2022/07/19 06:02:24;;;;;;;0.30;0.30;;;;;;;33.10;42.65;100793.34;5046016;28;20101;-67
2022/07/19 06:04:49;;;;;;;0.17;0.17;;;;;;;32.85;42.25;100795.72;5045860;28;20021;-66
2022/07/19 06:07:15;;;;;;;0.15;0.15;;;;;;;32.50;41.09;100792.75;5027874;28;20029;-68
2022/07/19 06:09:40;;;;;;;0.28;0.28;;;;;;;32.74;41.91;100792.25;5045798;28;20033;-67
2022/07/19 06:12:06;;;;;;;0.20;0.20;;;;;;;32.74;41.85;100794.09;5045779;28;20064;-67
2022/07/19 06:14:31;;;;;;;0.10;0.10;;;;;;;32.69;40.79;100799.91;5045499;28;20090;-66
2022/07/19 06:16:56;;;;;;;0.10;0.10;;;;;;;32.53;40.38;100789.81;5045676;28;20045;-68
2022/07/19 06:19:22;;;;;;;0.10;0.10;;;;;;;32.68;40.32;100790.16;5045520;28;20021;-67
2022/07/19 06:21:47;;;;;;;0.40;0.40;;;;;;;32.57;40.21;100782.31;5045055;28;20081;-66
2022/07/19 06:24:13;;;;;;;0.95;0.63;;;;;;;32.98;40.77;100779.22;5045167;28;20025;-66
2022/07/19 06:26:38;;;;;;;0.10;0.10;;;;;;;32.91;40.31;100775.47;5044113;28;20025;-66
2022/07/19 06:29:04;;;;;;;1.20;1.08;;;;;;;32.98;40.43;100784.59;5045088;28;20025;-67
2022/07/19 06:31:29;;;;;;;1.02;0.90;;;;;;;32.95;40.51;100788.44;5045264;28;20025;-66
2022/07/19 06:33:54;;;;;;;0.35;0.35;;;;;;;32.71;39.61;100784.50;5045012;28;20025;-67
2022/07/19 06:36:20;;;;;;;0.75;0.75;;;;;;;32.51;39.68;100784.59;5045052;28;20017;-66
2022/07/19 06:38:47;;;;;;;0.10;0.10;;;;;;;32.09;38.73;100775.13;5045363;28;20048;-67
2022/07/19 06:41:14;;;;;;;0.30;0.30;;;;;;;31.75;39.26;100763.00;5044121;28;20041;-66
2022/07/19 06:43:40;;;;;;;0.20;0.20;;;;;;;31.38;39.91;100736.91;5044659;28;20032;-67
2022/07/19 06:46:06;;;;;;;0.82;0.82;;;;;;;31.26;40.15;100742.38;5044963;28;20512;-67
2022/07/19 06:48:31;;;;;;;0.55;0.55;;;;;;;31.32;40.30;100729.41;5044987;28;20494;-66
2022/07/19 06:50:57;;;;;;;0.30;0.30;;;;;;;31.09;39.99;100703.72;5044848;28;20029;-66
2022/07/19 06:53:22;;;;;;;0.40;0.40;;;;;;;30.27;39.45;100703.84;5044594;28;20033;-66
2022/07/19 06:55:48;;;;;;;0.20;0.20;;;;;;;28.96;40.31;100728.97;5044844;28;20021;-66
2022/07/19 06:58:13;;;;;;;0.10;0.10;;;;;;;27.69;42.46;100778.75;5044618;28;20021;-66
2022/07/19 07:00:39;;;;;;;0.95;0.95;;;;;;;26.88;44.07;100773.94;5044817;28;20020;-67
2022/07/19 07:03:05;;;;;;;0.50;0.50;;;;;;;26.40;44.68;100772.84;5044690;28;20092;-66
2022/07/19 07:05:30;;;;;;;7.32;2.90;;;;;;;25.94;45.78;100779.50;5026838;28;20425;-66
2022/07/19 07:07:56;;;;;;;0.57;0.55;;;;;;;25.53;46.76;100790.09;5044786;28;20033;-65
2022/07/19 07:10:22;;;;;;;0.63;0.63;;;;;;;25.22;47.57;100803.59;5044427;28;20025;-65
2022/07/19 07:12:48;;;;;;;0.30;0.30;;;;;;;24.93;48.40;100816.94;5044586;28;20053;-65
2022/07/19 07:15:13;;;;;;;0.73;0.50;;;;;;;24.80;48.05;100826.56;5044351;28;20116;-66
2022/07/19 07:17:38;;;;;;;0.32;0.32;;;;;;;24.79;49.55;100835.50;5044501;28;20033;-66
2022/07/19 07:20:05;;;;;;;0.10;0.10;;;;;;;25.17;49.98;100850.84;5044383;28;20051;-67
2022/07/19 07:22:31;;;;;;;0.10;0.10;;;;;;;25.89;49.41;100851.63;5044387;28;20017;-66
2022/07/19 07:24:56;;;;;;;0.22;0.22;;;;;;;26.73;49.05;100853.09;5044201;28;20060;-67
2022/07/19 07:27:22;;;;;;;0.10;0.10;;;;;;;27.40;46.91;100856.38;5044060;28;20017;-66
2022/07/19 07:29:48;;;;;;;1.48;1.38;;;;;;;27.89;46.47;100851.09;5044192;28;20022;-65
2022/07/19 07:32:13;;;;;;;0.40;0.40;;;;;;;27.86;45.89;100851.28;5043935;28;20450;-66
2022/07/19 07:34:39;;;;;;;0.10;0.10;;;;;;;27.85;45.87;100857.59;5043919;28;20076;-67
2022/07/19 07:37:05;;;;;;;7.40;0.60;;;;;;;27.62;45.74;100859.28;5044062;28;20030;-66
2022/07/19 07:39:30;;;;;;;0.10;0.10;;;;;;;27.54;46.17;100863.38;5044274;28;20048;-67
2022/07/19 07:41:56;;;;;;;0.20;0.20;;;;;;;27.57;46.50;100867.63;5043885;28;20048;-67
2022/07/19 07:44:21;;;;;;;0.70;0.55;;;;;;;27.92;46.03;100866.88;5043906;28;20044;-67
2022/07/19 07:46:46;;;;;;;1.98;1.20;;;;;;;28.49;45.31;100873.31;5043871;28;20040;-67
2022/07/19 07:49:12;;;;;;;0.10;0.10;;;;;;;29.06;44.57;100873.34;5043803;28;20081;-66
2022/07/19 07:51:37;;;;;;;3.63;2.05;;;;;;;29.75;43.87;100882.13;5043858;28;20025;-66
2022/07/19 07:54:03;;;;;;;0.10;0.10;;;;;;;30.23;43.72;100863.03;5043683;28;20028;-66
2022/07/19 07:56:28;;;;;;;0.40;0.40;;;;;;;30.62;42.38;100849.88;5043673;28;20116;-66
2022/07/19 07:58:54;;;;;;;0.15;0.15;;;;;;;31.21;41.54;100846.56;5043557;28;20017;-66
2022/07/19 08:01:19;;;;;;;0.10;0.10;;;;;;;31.42;40.08;100843.78;5043933;28;20040;-66
2022/07/19 08:03:45;;;;;;;0.10;0.10;;;;;;;31.69;38.26;100837.88;5025867;28;20018;-68
2022/07/19 08:06:11;;;;;;;0.47;0.47;;;;;;;32.13;38.62;100830.22;5043702;28;20044;-65
2022/07/19 08:08:37;;;;;;;0.13;0.13;;;;;;;32.31;37.62;100826.78;5043683;28;20037;-66
2022/07/19 08:11:03;;;;;;;0.10;0.10;;;;;;;32.22;38.22;100838.41;5043489;28;20116;-66
2022/07/19 08:13:29;;;;;;;0.10;0.10;;;;;;;31.74;38.53;100838.28;5043460;28;20108;-66
2022/07/19 08:15:54;;;;;;;0.30;0.30;;;;;;;31.24;38.61;100826.66;5043270;28;20500;-65
2022/07/19 08:18:20;;;;;;;0.10;0.10;;;;;;;30.52;38.72;100827.53;5043492;28;20044;-66
2022/07/19 08:20:45;;;;;;;0.22;0.22;;;;;;;30.12;39.79;100840.69;5043658;28;20471;-66
2022/07/19 08:23:10;;;;;;;0.10;0.10;;;;;;;29.62;39.92;100836.81;5043488;28;20501;-66
2022/07/19 08:25:36;;;;;;;0.10;0.10;;;;;;;29.09;39.94;100841.03;5025506;28;20025;-64
2022/07/19 08:28:02;;;;;;;0.45;0.45;;;;;;;28.79;40.97;100843.34;5043377;28;20021;-65
2022/07/19 08:30:28;;;;;;;0.10;0.10;;;;;;;28.49;40.73;100849.28;5043261;28;20449;-66
2022/07/19 08:32:53;;;;;;;0.10;0.10;;;;;;;28.11;41.68;100862.78;5043244;28;20527;-65
2022/07/19 08:35:19;;;;;;;1.48;1.45;;;;;;;27.61;42.17;100866.44;5043207;28;20021;-65
2022/07/19 08:37:44;;;;;;;0.10;0.10;;;;;;;27.23;43.15;100881.59;5043538;28;20026;-67
2022/07/19 08:40:10;;;;;;;0.10;0.10;;;;;;;26.78;43.88;100882.06;5043238;28;20108;-65
2022/07/19 08:42:36;;;;;;;0.30;0.30;;;;;;;26.54;44.44;100896.13;5025015;28;20033;-66
2022/07/19 08:45:04;;;;;;;0.20;0.20;;;;;;;26.26;45.06;100909.50;5042893;28;20034;-65
2022/07/19 08:47:31;;;;;;;0.10;0.10;;;;;;;25.99;46.04;100916.53;5043159;28;20108;-65
2022/07/19 08:49:58;;;;;;;0.10;0.10;;;;;;;26.09;46.37;100919.44;5043123;28;20045;-65
2022/07/19 08:52:24;;;;;;;0.10;0.10;;;;;;;26.86;46.04;100917.00;5042779;28;20072;-65
2022/07/19 08:54:50;;;;;;;0.10;0.10;;;;;;;28.16;44.86;100921.16;5042878;28;20018;-67
2022/07/19 08:59:59;;;;;;;0.10;0.10;;;;;;;30.43;41.60;100913.06;5042999;28;20098;-67
2022/07/19 09:02:24;;;;;;;0.10;0.10;;;;;;;31.24;41.23;100909.78;5042835;28;20549;-64
2022/07/19 09:05:00;;;;;;;0.10;0.10;;;;;;;31.85;39.84;100907.94;5043694;28;20416;-60
2022/07/19 09:07:26;;;;;;;0.17;0.17;;;;;;;32.33;38.82;100910.75;5047002;28;20052;-60
2022/07/19 09:09:51;;;;;;;0.10;0.10;;;;;;;32.58;37.01;100910.28;5046870;28;20021;-62
2022/07/19 09:12:16;;;;;;;0.20;0.20;;;;;;;32.75;35.82;100920.25;5046661;28;20032;-60
2022/07/19 09:14:52;;;;;;;0.75;0.73;;;;;;;32.71;33.41;100916.19;5046724;28;20025;-60
2022/07/19 09:17:19;;;;;;;0.13;0.13;;;;;;;32.86;35.36;100897.72;5046915;28;20022;-62
2022/07/19 09:19:46;;;;;;;0.32;0.32;;;;;;;33.03;32.40;100911.38;5046534;28;20465;-60
2022/07/19 09:22:13;;;;;;;0.40;0.40;;;;;;;32.76;32.71;100910.38;5046608;28;20033;-60
2022/07/19 09:24:45;;;;;;;0.10;0.10;;;;;;;32.93;33.92;100911.41;5046413;28;20028;-60
2022/07/19 09:27:14;;;;;;;;;;;;;;;33.20;33.91;100917.81;5047037;28;20399;-60
2022/07/19 09:29:52;;;;;;;0.25;0.25;;;;;;;33.53;33.19;100922.75;5046317;28;19909;-60
2022/07/19 09:32:19;;;;;;;0.10;0.10;;;;;;;33.87;33.46;100927.44;5046355;28;20028;-59
2022/07/19 09:35:03;;;;;;;0.10;0.10;;;;;;;33.87;32.07;100927.44;5046300;28;20485;-60
2022/07/19 09:37:30;;;;;;;0.57;0.57;;;;;;;34.15;32.31;100926.53;5046528;28;20059;-60
2022/07/19 09:40:03;;;;;;;0.20;0.20;;;;;;;34.53;32.26;100926.28;5046220;28;20077;-60
2022/07/19 09:42:37;;;;;;;1.58;1.48;;;;;;;34.49;31.15;100928.44;5045994;28;20128;-61
2022/07/19 09:45:07;;;;;;;0.05;0.05;;;;;;;34.43;31.63;100923.69;5046064;28;20029;-60
2022/07/19 09:47:39;;;;;;;0.10;0.10;;;;;;;34.55;31.20;100936.91;5046214;28;20045;-60
2022/07/19 09:50:12;;;;;;;0.20;0.20;;;;;;;34.76;30.82;100928.47;5046114;28;20484;-60
2022/07/19 09:52:39;;;;;;;0.20;0.20;;;;;;;34.88;31.00;100929.03;5045632;28;20025;-61
2022/07/19 09:55:07;;;;;;;0.10;0.10;;;;;;;34.94;30.86;100922.97;5046065;28;20032;-61
2022/07/19 09:57:38;;;;;;;0.55;0.47;;;;;;;34.96;30.58;100931.78;5045997;28;20325;-60
2022/07/19 10:00:04;;;;;;;;;;;;;;;35.07;30.73;100925.22;5046433;28;20026;-61
2022/07/19 10:02:35;;;;;;;0.10;0.10;;;;;;;35.00;30.89;100918.81;5045936;28;19909;-60
2022/07/19 10:05:02;;;;;;;0.65;0.65;;;;;;;34.80;30.03;100918.19;5045873;28;20029;-60
2022/07/19 10:07:28;;;;;;;0.10;0.10;;;;;;;34.72;30.00;100916.31;5045686;28;20038;-60
2022/07/19 10:09:54;;;;;;;0.30;0.30;;;;;;;34.55;29.76;100910.81;5045705;28;20035;-61
2022/07/19 10:12:21;;;;;;;0.32;0.32;;;;;;;34.58;29.43;100923.97;5045602;28;20081;-60
2022/07/19 10:14:46;;;;;;;2.28;1.45;;;;;;;34.42;29.94;100915.78;5045502;28;20033;-60
2022/07/19 10:17:32;;;;;;;1.42;1.27;;;;;;;34.38;28.94;100912.53;5044399;28;20026;-59
2022/07/19 10:19:58;;;;;;;0.10;0.10;;;;;;;34.47;29.86;100913.44;5045737;28;20363;-60
2022/07/19 10:22:25;;;;;;;0.05;0.05;;;;;;;34.35;30.13;100921.78;5045316;28;20044;-59
2022/07/19 10:24:56;;;;;;;0.10;0.10;;;;;;;34.52;29.88;100916.53;5045433;28;20025;-60
2022/07/19 10:27:24;;;;;;;;;;;;;;;34.22;28.62;100922.22;5045762;28;20025;-61
2022/07/19 10:29:52;;;;;;;0.10;0.10;;;;;;;34.10;30.07;100923.44;5045006;28;19909;-61
2022/07/19 10:32:17;;;;;;;0.10;0.10;;;;;;;34.21;29.84;100914.28;5045039;28;20018;-60
2022/07/19 10:34:46;;;;;;;0.10;0.10;;;;;;;34.31;29.33;100919.56;5045123;28;20169;-60
2022/07/19 10:37:12;;;;;;;0.15;0.15;;;;;;;34.54;29.80;100911.78;5045182;28;20036;-59
2022/07/19 10:39:39;;;;;;;1.65;0.57;;;;;;;34.74;29.82;100898.97;5045139;28;20029;-60
2022/07/19 10:42:20;;;;;;;0.73;0.73;;;;;;;34.78;29.44;100907.56;5044801;28;20094;-60
2022/07/19 10:44:57;;;;;;;0.10;0.10;;;;;;;34.69;29.64;100898.63;5044833;28;20080;-60
2022/07/19 10:47:45;;;;;;;0.20;0.20;;;;;;;34.70;29.72;100899.47;5044944;28;20034;-61
2022/07/19 10:50:19;;;;;;;0.10;0.10;;;;;;;34.39;29.53;100902.63;5044894;28;20032;-61
2022/07/19 10:52:46;;;;;;;0.10;0.10;;;;;;;34.25;29.70;100904.91;5027844;28;20025;-61
2022/07/19 10:55:22;;;;;;;0.28;0.28;;;;;;;33.94;29.56;100905.28;5044852;28;20091;-61
2022/07/19 10:57:51;;;;;;;0.15;0.15;;;;;;;33.77;28.86;100910.56;5044969;28;20025;-60
2022/07/19 11:00:27;;;;;;;0.10;0.10;;;;;;;33.81;29.65;100911.06;5044635;28;20041;-60
2022/07/19 11:03:22;;;;;;;0.10;0.10;;;;;;;33.71;29.01;100913.84;5044673;28;20029;-60
2022/07/19 11:05:54;;;;;;;0.10;0.10;;;;;;;33.05;29.06;100906.72;5044616;28;20025;-60
2022/07/19 11:08:40;;;;;;;0.10;0.10;;;;;;;32.06;30.04;100909.66;5044506;28;20033;-59
2022/07/19 11:11:07;;;;;;;0.10;0.10;;;;;;;31.45;31.17;100914.25;5044365;28;20021;-59
2022/07/19 11:13:33;;;;;;;0.10;0.10;;;;;;;30.83;31.98;100901.75;5044484;28;20025;-59
2022/07/19 11:16:00;;;;;;;0.10;0.10;;;;;;;30.43;32.52;100899.66;5044390;28;20017;-61
2022/07/19 11:18:26;;;;;;;1.00;1.00;;;;;;;30.12;32.77;100909.44;5044447;28;20511;-61
2022/07/19 11:20:56;;;;;;;0.10;0.10;;;;;;;29.71;32.48;100914.59;5038018;28;20379;-61
2022/07/19 11:23:21;;;;;;;0.28;0.28;;;;;;;29.22;33.25;100907.72;5002769;28;20017;-61
2022/07/19 11:25:49;;;;;;;0.20;0.20;;;;;;;28.89;34.19;100912.94;5044020;28;20071;-60